1898 NOT_NAMED (1898207N15118)


IBTrACS version v04r00. Visit IBTrACS website for data access.
Please direct all questions to the IBTrACS Q and A forum

Storm track - Intensity - Wind Radii - Intensity Data - Source Data - All data

Summary Information

Storm ID 1898207N15118
Start Jul 25 16Z
Landfall Jul 29 12Z
End Jul 30 04Z
ATCF IDs
Track status Best track data.

Storm track plot

Map of storm track

Intensity plots

No Intensity information for this storm


Radial wind information

No radial wind information for this storm


Position and Intensity Table

BASIN ISO_TIME_________ NATURE LAT LON
degrees north degrees east
WP 1898-07-25 16:00:00 NR 14.50 118.40
WP 18:00:00 NR 14.77 118.20
WP 21:00:00 NR 15.15 117.91
WP 1898-07-26 00:00:00 NR 15.51 117.64
WP 03:00:00 NR 15.81 117.38
WP 04:00:00 NR 15.90 117.30
WP 06:00:00 NR 16.05 117.15
WP 09:00:00 NR 16.23 116.95
WP 12:00:00 NR 16.38 116.76
WP 15:00:00 NR 16.54 116.57
WP 16:00:00 NR 16.60 116.50
WP 18:00:00 NR 16.75 116.36
WP 21:00:00 NR 16.99 116.14
WP 1898-07-27 00:00:00 NR 17.25 115.91
WP 03:00:00 NR 17.51 115.68
WP 04:00:00 NR 17.60 115.60
WP 06:00:00 NR 17.77 115.44
WP 09:00:00 NR 18.03 115.19
WP 12:00:00 NR 18.28 114.94
WP 15:00:00 NR 18.52 114.68
WP 16:00:00 NR 18.60 114.60
WP 18:00:00 NR 18.74 114.43
WP 21:00:00 NR 18.94 114.18
WP 1898-07-28 00:00:00 NR 19.14 113.93
WP 03:00:00 NR 19.33 113.68
WP 04:00:00 NR 19.40 113.60
WP 06:00:00 NR 19.55 113.44
WP 09:00:00 NR 19.78 113.20
WP 12:00:00 NR 20.01 112.95
WP 15:00:00 NR 20.23 112.69
WP 16:00:00 NR 20.30 112.60
WP 18:00:00 NR 20.43 112.42
WP 21:00:00 NR 20.60 112.14
WP 1898-07-29 00:00:00 NR 20.77 111.83
WP 03:00:00 NR 20.94 111.51
WP 04:00:00 NR 21.00 111.40
WP 06:00:00 NR 21.12 111.17
WP 09:00:00 NR 21.32 110.80
WP 12:00:00 NR 21.52 110.42
WP 15:00:00 NR 21.73 110.03
WP 16:00:00 NR 21.80 109.90
WP 18:00:00 NR 21.95 109.65
WP 21:00:00 NR 22.17 109.27
WP 1898-07-30 00:00:00 NR 22.39 108.90
WP 03:00:00 NR 22.62 108.52
WP 04:00:00 NR 22.70 108.40

Source Information

Agency Information
USA
TOKYO
CMA
HKO
NEWDELHI
REUNION
BOM
NADI
WELLINGTON
DS824
TD9636 cons_worldwide_trop_cyclone_18710101-19891231-003:Line=1801
TD9635
NEUMANN
MLC

All available IBTrACS Data

SEASON BASIN SUBBASIN ISO_TIME_________ NATURE LAT LON DIST2LAND LANDFALL IFLAG USA SSHS TD9636 LAT TD9636 LON TD9636 STAGE STORM SPEED STORM DIR
Year degrees north degrees east km km 1 degrees north degrees east kts degrees
1898 WP MM 1898-07-25 16:00:00 NR 14.50 118.40 186 184 __________O___ -1 14.50 118.40 7 10 324
1898 WP MM 18:00:00 NR 14.77 118.20 194 194 __________P___ -1 14.77 118.20 7 10 324
1898 WP MM 21:00:00 NR 15.15 117.91 212 212 __________P___ -1 15.15 117.91 7 9 324
1898 WP MM 1898-07-26 00:00:00 NR 15.51 117.64 231 229 __________P___ -1 15.51 117.64 7 8 322
1898 WP MM 03:00:00 NR 15.81 117.38 247 247 __________P___ -1 15.81 117.38 7 8 320
1898 WP MM 04:00:00 NR 15.90 117.30 256 256 __________O___ -1 15.90 117.30 3 6 317
1898 WP MM 06:00:00 NR 16.05 117.15 267 278 __________P___ -1 16.05 117.15 3 6 314
1898 WP MM 09:00:00 NR 16.23 116.95 300 300 __________P___ -1 16.23 116.95 3 5 311
1898 WP MM 12:00:00 NR 16.38 116.76 312 323 __________P___ -1 16.38 116.76 3 5 310
1898 WP MM 15:00:00 NR 16.54 116.57 335 335 __________P___ -1 16.54 116.57 3 5 311
1898 WP MM 16:00:00 NR 16.60 116.50 348 348 __________O___ -1 16.60 116.50 4 6 317
1898 WP MM 18:00:00 NR 16.75 116.36 360 373 __________P___ -1 16.75 116.36 4 6 319
1898 WP MM 21:00:00 NR 16.99 116.14 399 399 __________P___ -1 16.99 116.14 4 7 320
1898 WP MM 1898-07-27 00:00:00 NR 17.25 115.91 430 430 __________P___ -1 17.25 115.91 4 7 320
1898 WP MM 03:00:00 NR 17.51 115.68 456 456 __________P___ -1 17.51 115.68 4 7 320
1898 WP MM 04:00:00 NR 17.60 115.60 469 469 __________O___ -1 17.60 115.60 4 7 318
1898 WP MM 06:00:00 NR 17.77 115.44 497 476 __________P___ -1 17.77 115.44 4 7 318
1898 WP MM 09:00:00 NR 18.03 115.19 476 435 __________P___ -1 18.03 115.19 4 7 317
1898 WP MM 12:00:00 NR 18.28 114.94 435 407 __________P___ -1 18.28 114.94 4 7 316
1898 WP MM 15:00:00 NR 18.52 114.68 407 394 __________P___ -1 18.52 114.68 4 7 315
1898 WP MM 16:00:00 NR 18.60 114.60 394 371 __________O___ -1 18.60 114.60 4 6 312
1898 WP MM 18:00:00 NR 18.74 114.43 371 344 __________P___ -1 18.74 114.43 4 6 311
1898 WP MM 21:00:00 NR 18.94 114.18 344 309 __________P___ -1 18.94 114.18 4 6 310
1898 WP MM 1898-07-28 00:00:00 NR 19.14 113.93 309 285 __________P___ -1 19.14 113.93 4 6 310
1898 WP MM 03:00:00 NR 19.33 113.68 285 273 __________P___ -1 19.33 113.68 4 6 310
1898 WP MM 04:00:00 NR 19.40 113.60 273 251 __________O___ -1 19.40 113.60 4 6 313
1898 WP MM 06:00:00 NR 19.55 113.44 251 230 __________P___ -1 19.55 113.44 4 6 315
1898 WP MM 09:00:00 NR 19.78 113.20 231 200 __________P___ -1 19.78 113.20 4 7 315
1898 WP MM 12:00:00 NR 20.01 112.95 200 172 __________P___ -1 20.01 112.95 4 7 313
1898 WP MM 15:00:00 NR 20.23 112.69 172 159 __________P___ -1 20.23 112.69 4 7 312
1898 WP MM 16:00:00 NR 20.30 112.60 159 145 __________O___ -1 20.30 112.60 4 6 308
1898 WP MM 18:00:00 NR 20.43 112.42 145 113 __________P___ -1 20.43 112.42 4 6 305
1898 WP MM 21:00:00 NR 20.60 112.14 113 80 __________P___ -1 20.60 112.14 4 6 302
1898 WP MM 1898-07-29 00:00:00 NR 20.77 111.83 80 59 __________P___ -1 20.77 111.83 4 7 300
1898 WP MM 03:00:00 NR 20.94 111.51 59 45 __________P___ -1 20.94 111.51 4 7 300
1898 WP MM 04:00:00 NR 21.00 111.40 45 33 __________O___ -1 21.00 111.40 4 7 300
1898 WP MM 06:00:00 NR 21.12 111.17 35 10 __________P___ -1 21.12 111.17 4 8 300
1898 WP MM 09:00:00 NR 21.32 110.80 10 0 __________P___ -1 21.32 110.80 4 8 299
1898 WP MM 12:00:00 NR 21.52 110.42 0 0 __________P___ -1 21.52 110.42 4 8 300
1898 WP MM 15:00:00 NR 21.73 110.03 0 0 __________P___ -1 21.73 110.03 4 8 300
1898 WP MM 16:00:00 NR 21.80 109.90 0 0 __________O___ -1 21.80 109.90 4 8 301
1898 WP MM 18:00:00 NR 21.95 109.65 0 0 __________P___ -1 21.95 109.65 4 8 302
1898 WP MM 21:00:00 NR 22.17 109.27 0 0 __________P___ -1 22.17 109.27 4 8 303
1898 WP MM 1898-07-30 00:00:00 NR 22.39 108.90 0 0 __________P___ -1 22.39 108.90 4 8 303
1898 WP MM 03:00:00 NR 22.62 108.52 0 0 __________P___ -1 22.62 108.52 4 8 304
1898 WP MM 04:00:00 NR 22.70 108.40 0 __________O___ -1 22.70 108.40 4 8 304